sensor_id;sensor_type;location;lat;lon;timestamp;pressure;altitude;pressure_sealevel;temperature;humidity
55994;BME280;67425;52.126;20.638;2023-02-15T00:01:24;57694.94;;;-144.78;100.00
55994;BME280;67425;52.126;20.638;2023-02-15T00:03:50;57672.09;;;-144.78;100.00
55994;BME280;67425;52.126;20.638;2023-02-15T00:06:15;57690.78;;;-144.78;100.00
55994;BME280;67425;52.126;20.638;2023-02-15T00:08:41;57684.56;;;-144.78;100.00
55994;BME280;67425;52.126;20.638;2023-02-15T00:11:07;57690.78;;;-144.78;100.00
55994;BME280;67425;52.126;20.638;2023-02-15T00:13:33;57705.34;;;-144.78;100.00
55994;BME280;67425;52.126;20.638;2023-02-15T00:16:02;57694.94;;;-144.78;100.00
55994;BME280;67425;52.126;20.638;2023-02-15T00:18:27;57694.94;;;-144.78;100.00
55994;BME280;67425;52.126;20.638;2023-02-15T00:20:52;57728.19;;;-144.78;100.00
55994;BME280;67425;52.126;20.638;2023-02-15T00:23:18;57684.56;;;-144.78;100.00
55994;BME280;67425;52.126;20.638;2023-02-15T00:25:43;57682.50;;;-144.78;100.00
55994;BME280;67425;52.126;20.638;2023-02-15T00:28:09;57709.50;;;-144.78;100.00
55994;BME280;67425;52.126;20.638;2023-02-15T00:30:34;57697.03;;;-144.78;100.00
55994;BME280;67425;52.126;20.638;2023-02-15T00:32:59;57701.19;;;-144.78;100.00
55994;BME280;67425;52.126;20.638;2023-02-15T00:35:24;57699.09;;;-144.78;100.00
55994;BME280;67425;52.126;20.638;2023-02-15T00:37:50;57703.25;;;-144.78;100.00
55994;BME280;67425;52.126;20.638;2023-02-15T00:40:17;57688.72;;;-144.78;100.00
55994;BME280;67425;52.126;20.638;2023-02-15T00:42:43;57697.03;;;-144.78;100.00
55994;BME280;67425;52.126;20.638;2023-02-15T00:45:08;57711.56;;;-144.78;100.00
55994;BME280;67425;52.126;20.638;2023-02-15T00:47:34;57688.72;;;-144.78;100.00
55994;BME280;67425;52.126;20.638;2023-02-15T00:49:59;57688.72;;;-144.78;100.00
55994;BME280;67425;52.126;20.638;2023-02-15T00:52:24;57705.34;;;-144.78;100.00
55994;BME280;67425;52.126;20.638;2023-02-15T00:54:50;57705.34;;;-144.78;100.00
55994;BME280;67425;52.126;20.638;2023-02-15T00:57:15;57713.63;;;-144.78;100.00
55994;BME280;67425;52.126;20.638;2023-02-15T00:59:40;57699.09;;;-144.78;100.00
55994;BME280;67425;52.126;20.638;2023-02-15T01:02:06;57721.94;;;-144.78;100.00
55994;BME280;67425;52.126;20.638;2023-02-15T01:04:31;57694.94;;;-144.78;100.00
55994;BME280;67425;52.126;20.638;2023-02-15T01:06:56;57707.41;;;-144.78;100.00
55994;BME280;67425;52.126;20.638;2023-02-15T01:09:22;57692.88;;;-144.78;100.00
55994;BME280;67425;52.126;20.638;2023-02-15T01:11:47;57692.88;;;-144.78;100.00
55994;BME280;67425;52.126;20.638;2023-02-15T01:14:12;57713.63;;;-144.78;100.00
55994;BME280;67425;52.126;20.638;2023-02-15T01:16:38;57703.25;;;-144.78;100.00
55994;BME280;67425;52.126;20.638;2023-02-15T01:19:03;57692.88;;;-144.78;100.00
55994;BME280;67425;52.126;20.638;2023-02-15T01:21:29;57699.09;;;-144.78;100.00
55994;BME280;67425;52.126;20.638;2023-02-15T01:23:54;57721.94;;;-144.78;100.00
55994;BME280;67425;52.126;20.638;2023-02-15T01:26:20;57692.88;;;-144.78;100.00
55994;BME280;67425;52.126;20.638;2023-02-15T01:28:45;57717.78;;;-144.78;100.00
55994;BME280;67425;52.126;20.638;2023-02-15T01:31:13;57705.34;;;-144.78;100.00
55994;BME280;67425;52.126;20.638;2023-02-15T01:33:40;57699.09;;;-144.78;100.00
55994;BME280;67425;52.126;20.638;2023-02-15T01:36:06;57711.56;;;-144.78;100.00
55994;BME280;67425;52.126;20.638;2023-02-15T01:38:31;57728.19;;;-144.78;100.00
55994;BME280;67425;52.126;20.638;2023-02-15T01:40:56;57721.94;;;-144.78;100.00
55994;BME280;67425;52.126;20.638;2023-02-15T01:43:45;57684.56;;;-144.78;100.00
55994;BME280;67425;52.126;20.638;2023-02-15T01:46:13;57715.72;;;-144.78;100.00
55994;BME280;67425;52.126;20.638;2023-02-15T01:48:44;57697.03;;;-144.78;100.00
55994;BME280;67425;52.126;20.638;2023-02-15T01:51:10;57697.03;;;-144.78;100.00
55994;BME280;67425;52.126;20.638;2023-02-15T01:53:41;57711.56;;;-144.78;100.00
55994;BME280;67425;52.126;20.638;2023-02-15T01:56:34;57697.03;;;-144.78;100.00
55994;BME280;67425;52.126;20.638;2023-02-15T01:59:06;57701.19;;;-144.78;100.00
55994;BME280;67425;52.126;20.638;2023-02-15T02:01:33;57678.34;;;-144.78;100.00
55994;BME280;67425;52.126;20.638;2023-02-15T02:07:06;57686.63;;;-144.78;100.00
55994;BME280;67425;52.126;20.638;2023-02-15T02:09:32;57713.63;;;-144.78;100.00
55994;BME280;67425;52.126;20.638;2023-02-15T02:11:57;57690.78;;;-144.78;100.00
55994;BME280;67425;52.126;20.638;2023-02-15T02:14:24;57680.41;;;-144.78;100.00
55994;BME280;67425;52.126;20.638;2023-02-15T02:31:10;57701.19;;;-144.78;100.00
55994;BME280;67425;52.126;20.638;2023-02-15T02:39:04;57692.88;;;-144.78;100.00
55994;BME280;67425;52.126;20.638;2023-02-15T02:41:51;57688.72;;;-144.78;100.00
55994;BME280;67425;52.126;20.638;2023-02-15T02:44:29;57690.78;;;-144.78;100.00
55994;BME280;67425;52.126;20.638;2023-02-15T02:47:12;57711.56;;;-144.78;100.00
55994;BME280;67425;52.126;20.638;2023-02-15T02:49:42;57694.94;;;-144.78;100.00
55994;BME280;67425;52.126;20.638;2023-02-15T02:55:08;57721.94;;;-144.78;100.00
55994;BME280;67425;52.126;20.638;2023-02-15T02:57:37;57701.19;;;-144.78;100.00
55994;BME280;67425;52.126;20.638;2023-02-15T03:00:05;57732.34;;;-144.78;100.00
55994;BME280;67425;52.126;20.638;2023-02-15T03:02:37;57701.19;;;-144.78;100.00
55994;BME280;67425;52.126;20.638;2023-02-15T03:05:09;57709.50;;;-144.78;100.00
55994;BME280;67425;52.126;20.638;2023-02-15T03:07:37;57672.09;;;-144.78;100.00
55994;BME280;67425;52.126;20.638;2023-02-15T03:10:05;57690.78;;;-144.78;100.00
55994;BME280;67425;52.126;20.638;2023-02-15T03:12:34;57713.63;;;-144.78;100.00
55994;BME280;67425;52.126;20.638;2023-02-15T03:15:07;57680.41;;;-144.78;100.00
55994;BME280;67425;52.126;20.638;2023-02-15T03:17:36;57705.34;;;-144.78;100.00
55994;BME280;67425;52.126;20.638;2023-02-15T03:20:10;57694.94;;;-144.78;100.00
55994;BME280;67425;52.126;20.638;2023-02-15T03:22:39;57701.19;;;-144.78;100.00
55994;BME280;67425;52.126;20.638;2023-02-15T03:25:52;57690.78;;;-144.78;100.00
55994;BME280;67425;52.126;20.638;2023-02-15T03:28:01;57701.19;;;-144.78;100.00
55994;BME280;67425;52.126;20.638;2023-02-15T03:30:29;57692.88;;;-144.78;100.00
55994;BME280;67425;52.126;20.638;2023-02-15T03:32:57;57701.19;;;-144.78;100.00
55994;BME280;67425;52.126;20.638;2023-02-15T03:35:25;57680.41;;;-144.78;100.00
55994;BME280;67425;52.126;20.638;2023-02-15T03:38:00;57709.50;;;-144.78;100.00
55994;BME280;67425;52.126;20.638;2023-02-15T03:43:17;57732.34;;;-144.78;100.00
55994;BME280;67425;52.126;20.638;2023-02-15T03:45:48;57697.03;;;-144.78;100.00
55994;BME280;67425;52.126;20.638;2023-02-15T03:48:31;57699.09;;;-144.78;100.00
55994;BME280;67425;52.126;20.638;2023-02-15T03:51:03;57719.88;;;-144.78;100.00
55994;BME280;67425;52.126;20.638;2023-02-15T03:53:49;57692.88;;;-144.78;100.00
55994;BME280;67425;52.126;20.638;2023-02-15T03:56:15;57686.63;;;-144.78;100.00
55994;BME280;67425;52.126;20.638;2023-02-15T03:58:40;57692.88;;;-144.78;100.00
55994;BME280;67425;52.126;20.638;2023-02-15T04:01:40;57692.88;;;-144.78;100.00
55994;BME280;67425;52.126;20.638;2023-02-15T04:04:36;57719.88;;;-144.78;100.00
55994;BME280;67425;52.126;20.638;2023-02-15T04:07:03;57707.41;;;-144.78;100.00
55994;BME280;67425;52.126;20.638;2023-02-15T04:09:29;57699.09;;;-144.78;100.00
55994;BME280;67425;52.126;20.638;2023-02-15T04:12:13;57701.19;;;-144.78;100.00
55994;BME280;67425;52.126;20.638;2023-02-15T04:14:38;57707.41;;;-144.78;100.00
55994;BME280;67425;52.126;20.638;2023-02-15T04:17:22;57736.50;;;-144.78;100.00
55994;BME280;67425;52.126;20.638;2023-02-15T04:19:47;57711.56;;;-144.78;100.00
55994;BME280;67425;52.126;20.638;2023-02-15T04:22:32;57728.19;;;-144.78;100.00
55994;BME280;67425;52.126;20.638;2023-02-15T04:25:15;57688.72;;;-144.78;100.00
55994;BME280;67425;52.126;20.638;2023-02-15T04:27:44;57713.63;;;-144.78;100.00
55994;BME280;67425;52.126;20.638;2023-02-15T04:30:12;57692.88;;;-144.78;100.00
55994;BME280;67425;52.126;20.638;2023-02-15T04:32:38;57713.63;;;-144.78;100.00
55994;BME280;67425;52.126;20.638;2023-02-15T04:35:04;57726.09;;;-144.78;100.00
55994;BME280;67425;52.126;20.638;2023-02-15T04:37:30;57676.25;;;-144.78;100.00
55994;BME280;67425;52.126;20.638;2023-02-15T04:39:56;57697.03;;;-144.78;100.00
55994;BME280;67425;52.126;20.638;2023-02-15T04:42:26;57694.94;;;-144.78;100.00
55994;BME280;67425;52.126;20.638;2023-02-15T04:44:52;57719.88;;;-144.78;100.00
55994;BME280;67425;52.126;20.638;2023-02-15T04:47:17;57697.03;;;-144.78;100.00
55994;BME280;67425;52.126;20.638;2023-02-15T04:49:43;57728.19;;;-144.78;100.00
55994;BME280;67425;52.126;20.638;2023-02-15T04:52:08;57744.78;;;-144.78;100.00
55994;BME280;67425;52.126;20.638;2023-02-15T04:54:34;57713.63;;;-144.78;100.00
55994;BME280;67425;52.126;20.638;2023-02-15T04:56:59;57713.63;;;-144.78;100.00
55994;BME280;67425;52.126;20.638;2023-02-15T04:59:24;57721.94;;;-144.78;100.00
55994;BME280;67425;52.126;20.638;2023-02-15T05:01:50;57738.56;;;-144.78;100.00
55994;BME280;67425;52.126;20.638;2023-02-15T05:04:15;57730.25;;;-144.78;100.00
55994;BME280;67425;52.126;20.638;2023-02-15T05:06:40;57738.56;;;-144.78;100.00
55994;BME280;67425;52.126;20.638;2023-02-15T05:09:06;57715.72;;;-144.78;100.00
55994;BME280;67425;52.126;20.638;2023-02-15T05:11:31;57734.41;;;-144.78;100.00
55994;BME280;67425;52.126;20.638;2023-02-15T05:13:57;57721.94;;;-144.78;100.00
55994;BME280;67425;52.126;20.638;2023-02-15T05:16:22;57717.78;;;-144.78;100.00
55994;BME280;67425;52.126;20.638;2023-02-15T05:18:47;57726.09;;;-144.78;100.00
55994;BME280;67425;52.126;20.638;2023-02-15T05:21:13;57705.34;;;-144.78;100.00
55994;BME280;67425;52.126;20.638;2023-02-15T05:23:38;57724.03;;;-144.78;100.00
55994;BME280;67425;52.126;20.638;2023-02-15T05:26:04;57724.03;;;-144.78;100.00
55994;BME280;67425;52.126;20.638;2023-02-15T05:28:47;57730.25;;;-144.78;100.00
55994;BME280;67425;52.126;20.638;2023-02-15T05:31:17;57717.78;;;-144.78;100.00
55994;BME280;67425;52.126;20.638;2023-02-15T05:33:44;57724.03;;;-144.78;100.00
55994;BME280;67425;52.126;20.638;2023-02-15T05:36:10;57713.63;;;-144.78;100.00
55994;BME280;67425;52.126;20.638;2023-02-15T05:38:36;57730.25;;;-144.78;100.00
55994;BME280;67425;52.126;20.638;2023-02-15T05:41:06;57730.25;;;-144.78;100.00
55994;BME280;67425;52.126;20.638;2023-02-15T05:43:32;57734.41;;;-144.78;100.00
55994;BME280;67425;52.126;20.638;2023-02-15T05:45:57;57757.25;;;-144.78;100.00
55994;BME280;67425;52.126;20.638;2023-02-15T05:48:24;57740.63;;;-144.78;100.00
55994;BME280;67425;52.126;20.638;2023-02-15T05:51:01;57744.78;;;-144.78;100.00
55994;BME280;67425;52.126;20.638;2023-02-15T05:53:28;57751.03;;;-144.78;100.00
55994;BME280;67425;52.126;20.638;2023-02-15T05:55:54;57715.72;;;-144.78;100.00
55994;BME280;67425;52.126;20.638;2023-02-15T05:58:31;57728.19;;;-144.78;100.00
55994;BME280;67425;52.126;20.638;2023-02-15T06:00:57;57717.78;;;-144.78;100.00
55994;BME280;67425;52.126;20.638;2023-02-15T06:03:23;57746.88;;;-144.78;100.00
55994;BME280;67425;52.126;20.638;2023-02-15T06:05:49;57742.72;;;-144.78;100.00
55994;BME280;67425;52.126;20.638;2023-02-15T06:08:14;57748.94;;;-144.78;100.00
55994;BME280;67425;52.126;20.638;2023-02-15T06:10:40;57742.72;;;-144.78;100.00
55994;BME280;67425;52.126;20.638;2023-02-15T06:13:06;57726.09;;;-144.78;100.00
55994;BME280;67425;52.126;20.638;2023-02-15T06:15:32;57709.50;;;-144.78;100.00
55994;BME280;67425;52.126;20.638;2023-02-15T06:17:57;57755.19;;;-144.78;100.00
55994;BME280;67425;52.126;20.638;2023-02-15T06:20:22;57740.63;;;-144.78;100.00
55994;BME280;67425;52.126;20.638;2023-02-15T06:22:48;57721.94;;;-144.78;100.00
55994;BME280;67425;52.126;20.638;2023-02-15T06:25:13;57738.56;;;-144.78;100.00
55994;BME280;67425;52.126;20.638;2023-02-15T06:27:41;57721.94;;;-144.78;100.00
55994;BME280;67425;52.126;20.638;2023-02-15T06:30:07;57755.19;;;-144.78;100.00
55994;BME280;67425;52.126;20.638;2023-02-15T06:32:33;57738.56;;;-144.78;100.00
55994;BME280;67425;52.126;20.638;2023-02-15T06:34:59;57755.19;;;-144.78;100.00
55994;BME280;67425;52.126;20.638;2023-02-15T06:37:24;57721.94;;;-144.78;100.00
55994;BME280;67425;52.126;20.638;2023-02-15T06:39:49;57738.56;;;-144.78;100.00
55994;BME280;67425;52.126;20.638;2023-02-15T06:42:15;57740.63;;;-144.78;100.00
55994;BME280;67425;52.126;20.638;2023-02-15T06:44:40;57744.78;;;-144.78;100.00
55994;BME280;67425;52.126;20.638;2023-02-15T06:47:05;57742.72;;;-144.78;100.00
55994;BME280;67425;52.126;20.638;2023-02-15T06:49:31;57751.03;;;-144.78;100.00
55994;BME280;67425;52.126;20.638;2023-02-15T06:51:56;57734.41;;;-144.78;100.00
55994;BME280;67425;52.126;20.638;2023-02-15T06:54:21;57738.56;;;-144.78;100.00
55994;BME280;67425;52.126;20.638;2023-02-15T06:56:47;57738.56;;;-144.78;100.00
55994;BME280;67425;52.126;20.638;2023-02-15T06:59:12;57740.63;;;-144.78;100.00
55994;BME280;67425;52.126;20.638;2023-02-15T07:01:37;57742.72;;;-144.78;100.00
55994;BME280;67425;52.126;20.638;2023-02-15T07:04:03;57761.41;;;-144.78;100.00
55994;BME280;67425;52.126;20.638;2023-02-15T07:06:34;57740.63;;;-144.78;100.00
55994;BME280;67425;52.126;20.638;2023-02-15T07:09:00;57734.41;;;-144.78;100.00
55994;BME280;67425;52.126;20.638;2023-02-15T07:11:26;57734.41;;;-144.78;100.00
55994;BME280;67425;52.126;20.638;2023-02-15T07:14:10;57719.88;;;-144.78;100.00
55994;BME280;67425;52.126;20.638;2023-02-15T07:16:35;57734.41;;;-144.78;100.00
55994;BME280;67425;52.126;20.638;2023-02-15T07:19:01;57757.25;;;-144.78;100.00
55994;BME280;67425;52.126;20.638;2023-02-15T07:21:27;57734.41;;;-144.78;100.00
55994;BME280;67425;52.126;20.638;2023-02-15T07:23:55;57734.41;;;-144.78;100.00
55994;BME280;67425;52.126;20.638;2023-02-15T07:26:20;57742.72;;;-144.78;100.00
55994;BME280;67425;52.126;20.638;2023-02-15T07:28:46;57736.50;;;-144.78;100.00
55994;BME280;67425;52.126;20.638;2023-02-15T07:31:11;57730.25;;;-144.78;100.00
55994;BME280;67425;52.126;20.638;2023-02-15T07:33:36;57724.03;;;-144.78;100.00
55994;BME280;67425;52.126;20.638;2023-02-15T07:36:03;57740.63;;;-144.78;100.00
55994;BME280;67425;52.126;20.638;2023-02-15T07:38:34;57719.88;;;-144.78;100.00
55994;BME280;67425;52.126;20.638;2023-02-15T07:41:02;57715.72;;;-144.78;100.00
55994;BME280;67425;52.126;20.638;2023-02-15T07:43:28;57707.41;;;-144.78;100.00
55994;BME280;67425;52.126;20.638;2023-02-15T07:45:54;57734.41;;;-144.78;100.00
55994;BME280;67425;52.126;20.638;2023-02-15T07:48:23;57730.25;;;-144.78;100.00
55994;BME280;67425;52.126;20.638;2023-02-15T07:50:48;57761.41;;;-144.78;100.00
55994;BME280;67425;52.126;20.638;2023-02-15T07:53:14;57717.78;;;-144.78;100.00
55994;BME280;67425;52.126;20.638;2023-02-15T07:55:39;57707.41;;;-144.78;100.00
55994;BME280;67425;52.126;20.638;2023-02-15T07:58:04;57738.56;;;-144.78;100.00
55994;BME280;67425;52.126;20.638;2023-02-15T08:00:30;57726.09;;;-144.78;100.00
55994;BME280;67425;52.126;20.638;2023-02-15T08:03:15;57711.56;;;-144.78;100.00
55994;BME280;67425;52.126;20.638;2023-02-15T08:05:42;57738.56;;;-144.78;100.00
55994;BME280;67425;52.126;20.638;2023-02-15T08:08:09;57703.25;;;-144.78;100.00
55994;BME280;67425;52.126;20.638;2023-02-15T08:13:48;57746.88;;;-144.78;100.00
55994;BME280;67425;52.126;20.638;2023-02-15T08:16:22;57728.19;;;-144.78;100.00
55994;BME280;67425;52.126;20.638;2023-02-15T08:18:48;57736.50;;;-144.78;100.00
55994;BME280;67425;52.126;20.638;2023-02-15T08:21:13;57707.41;;;-144.78;100.00
55994;BME280;67425;52.126;20.638;2023-02-15T08:23:39;57690.78;;;-144.78;100.00
55994;BME280;67425;52.126;20.638;2023-02-15T08:26:04;57713.63;;;-144.78;100.00
55994;BME280;67425;52.126;20.638;2023-02-15T08:28:30;57736.50;;;-144.78;100.00
55994;BME280;67425;52.126;20.638;2023-02-15T08:31:04;57728.19;;;-144.78;100.00
55994;BME280;67425;52.126;20.638;2023-02-15T08:33:29;57699.09;;;-144.78;100.00
55994;BME280;67425;52.126;20.638;2023-02-15T08:35:55;57724.03;;;-144.78;100.00
55994;BME280;67425;52.126;20.638;2023-02-15T08:38:20;57726.09;;;-144.78;100.00
55994;BME280;67425;52.126;20.638;2023-02-15T08:40:45;57726.09;;;-144.78;100.00
55994;BME280;67425;52.126;20.638;2023-02-15T08:43:11;57746.88;;;-144.78;100.00
55994;BME280;67425;52.126;20.638;2023-02-15T08:45:36;57740.63;;;-144.78;100.00
55994;BME280;67425;52.126;20.638;2023-02-15T08:48:01;57751.03;;;-144.78;100.00
55994;BME280;67425;52.126;20.638;2023-02-15T08:50:27;57701.19;;;-144.78;100.00
55994;BME280;67425;52.126;20.638;2023-02-15T08:52:52;57721.94;;;-144.78;100.00
55994;BME280;67425;52.126;20.638;2023-02-15T08:55:17;57707.41;;;-144.78;100.00
55994;BME280;67425;52.126;20.638;2023-02-15T08:57:43;57701.19;;;-144.78;100.00
55994;BME280;67425;52.126;20.638;2023-02-15T09:00:10;57694.94;;;-144.78;100.00
55994;BME280;67425;52.126;20.638;2023-02-15T09:02:37;57742.72;;;-144.78;100.00
55994;BME280;67425;52.126;20.638;2023-02-15T09:05:02;57713.63;;;-144.78;100.00
55994;BME280;67425;52.126;20.638;2023-02-15T09:07:27;57715.72;;;-144.78;100.00
55994;BME280;67425;52.126;20.638;2023-02-15T09:09:53;57705.34;;;-144.78;100.00
55994;BME280;67425;52.126;20.638;2023-02-15T09:12:19;57730.25;;;-144.78;100.00
55994;BME280;67425;52.126;20.638;2023-02-15T09:14:44;57701.19;;;-144.78;100.00
55994;BME280;67425;52.126;20.638;2023-02-15T09:17:09;57707.41;;;-144.78;100.00
55994;BME280;67425;52.126;20.638;2023-02-15T09:19:35;57740.63;;;-144.78;100.00
55994;BME280;67425;52.126;20.638;2023-02-15T09:22:00;57711.56;;;-144.78;100.00
55994;BME280;67425;52.126;20.638;2023-02-15T09:24:26;57709.50;;;-144.78;100.00
55994;BME280;67425;52.126;20.638;2023-02-15T09:26:51;57713.63;;;-144.78;100.00
55994;BME280;67425;52.126;20.638;2023-02-15T09:29:17;57690.78;;;-144.78;100.00
55994;BME280;67425;52.126;20.638;2023-02-15T09:31:48;57711.56;;;-144.78;100.00
55994;BME280;67425;52.126;20.638;2023-02-15T09:34:16;57748.94;;;-144.78;100.00
55994;BME280;67425;52.126;20.638;2023-02-15T09:36:42;57721.94;;;-144.78;100.00
55994;BME280;67425;52.126;20.638;2023-02-15T09:39:09;57707.41;;;-144.78;100.00
55994;BME280;67425;52.126;20.638;2023-02-15T09:41:54;57717.78;;;-144.78;100.00
55994;BME280;67425;52.126;20.638;2023-02-15T09:55:57;57709.50;;;-144.78;100.00
55994;BME280;67425;52.126;20.638;2023-02-15T09:58:35;57697.03;;;-144.78;100.00
55994;BME280;67425;52.126;20.638;2023-02-15T10:26:28;57709.50;;;-144.78;100.00
55994;BME280;67425;52.126;20.638;2023-02-15T10:29:03;57678.34;;;-144.78;100.00
55994;BME280;67425;52.126;20.638;2023-02-15T10:34:18;57697.03;;;-144.78;100.00
55994;BME280;67425;52.126;20.638;2023-02-15T10:42:09;57703.25;;;-144.78;100.00
55994;BME280;67425;52.126;20.638;2023-02-15T10:47:26;57690.78;;;-144.78;100.00
55994;BME280;67425;52.126;20.638;2023-02-15T10:49:58;57682.50;;;-144.78;100.00
55994;BME280;67425;52.126;20.638;2023-02-15T10:52:47;57686.63;;;-144.78;100.00
55994;BME280;67425;52.126;20.638;2023-02-15T11:00:57;57676.25;;;-144.78;100.00
55994;BME280;67425;52.126;20.638;2023-02-15T11:06:18;57682.50;;;-144.78;100.00
55994;BME280;67425;52.126;20.638;2023-02-15T11:08:47;57690.78;;;-144.78;100.00
55994;BME280;67425;52.126;20.638;2023-02-15T11:11:21;57661.72;;;-144.78;100.00
55994;BME280;67425;52.126;20.638;2023-02-15T11:13:51;57663.78;;;-144.78;100.00
55994;BME280;67425;52.126;20.638;2023-02-15T11:16:25;57665.88;;;-144.78;100.00
55994;BME280;67425;52.126;20.638;2023-02-15T11:18:59;57688.72;;;-144.78;100.00
55994;BME280;67425;52.126;20.638;2023-02-15T11:21:32;57692.88;;;-144.78;100.00
55994;BME280;67425;52.126;20.638;2023-02-15T11:24:10;57701.19;;;-144.78;100.00
55994;BME280;67425;52.126;20.638;2023-02-15T11:27:10;57692.88;;;-144.78;100.00
55994;BME280;67425;52.126;20.638;2023-02-15T11:35:02;57692.88;;;-144.78;100.00
55994;BME280;67425;52.126;20.638;2023-02-15T11:37:40;57667.94;;;-144.78;100.00
55994;BME280;67425;52.126;20.638;2023-02-15T11:40:20;57663.78;;;-144.78;100.00
55994;BME280;67425;52.126;20.638;2023-02-15T11:42:49;57672.09;;;-144.78;100.00
55994;BME280;67425;52.126;20.638;2023-02-15T11:45:25;57663.78;;;-144.78;100.00
55994;BME280;67425;52.126;20.638;2023-02-15T11:47:53;57670.03;;;-144.78;100.00
55994;BME280;67425;52.126;20.638;2023-02-15T11:50:29;57680.41;;;-144.78;100.00
55994;BME280;67425;52.126;20.638;2023-02-15T11:53:02;57692.88;;;-144.78;100.00
55994;BME280;67425;52.126;20.638;2023-02-15T11:55:28;57659.63;;;-144.78;100.00
55994;BME280;67425;52.126;20.638;2023-02-15T12:00:34;57678.34;;;-144.78;100.00
55994;BME280;67425;52.126;20.638;2023-02-15T12:03:13;57672.09;;;-144.78;100.00
55994;BME280;67425;52.126;20.638;2023-02-15T12:05:42;57663.78;;;-144.78;100.00
55994;BME280;67425;52.126;20.638;2023-02-15T12:08:15;57692.88;;;-144.78;100.00
55994;BME280;67425;52.126;20.638;2023-02-15T12:11:06;57684.56;;;-144.78;100.00
55994;BME280;67425;52.126;20.638;2023-02-15T12:13:32;57676.25;;;-144.78;100.00
55994;BME280;67425;52.126;20.638;2023-02-15T12:15:58;57684.56;;;-144.78;100.00
55994;BME280;67425;52.126;20.638;2023-02-15T12:18:39;57684.56;;;-144.78;100.00
55994;BME280;67425;52.126;20.638;2023-02-15T12:23:54;57701.19;;;-144.78;100.00
55994;BME280;67425;52.126;20.638;2023-02-15T12:26:29;57665.88;;;-144.78;100.00
55994;BME280;67425;52.126;20.638;2023-02-15T12:29:00;57674.19;;;-144.78;100.00
55994;BME280;67425;52.126;20.638;2023-02-15T12:31:39;57674.19;;;-144.78;100.00
55994;BME280;67425;52.126;20.638;2023-02-15T12:36:48;57649.25;;;-144.78;100.00
55994;BME280;67425;52.126;20.638;2023-02-15T12:39:19;57667.94;;;-144.78;100.00
55994;BME280;67425;52.126;20.638;2023-02-15T12:49:23;57665.88;;;-144.78;100.00
55994;BME280;67425;52.126;20.638;2023-02-15T12:51:54;57661.72;;;-144.78;100.00
55994;BME280;67425;52.126;20.638;2023-02-15T12:54:35;57670.03;;;-144.78;100.00
55994;BME280;67425;52.126;20.638;2023-02-15T12:57:32;57674.19;;;-144.78;100.00
55994;BME280;67425;52.126;20.638;2023-02-15T13:05:18;57688.72;;;-144.78;100.00
55994;BME280;67425;52.126;20.638;2023-02-15T13:07:56;57655.50;;;-144.78;100.00
55994;BME280;67425;52.126;20.638;2023-02-15T13:10:31;57684.56;;;-144.78;100.00
55994;BME280;67425;52.126;20.638;2023-02-15T13:12:59;57680.41;;;-144.78;100.00
55994;BME280;67425;52.126;20.638;2023-02-15T13:15:39;57678.34;;;-144.78;100.00
55994;BME280;67425;52.126;20.638;2023-02-15T13:18:12;57667.94;;;-144.78;100.00
55994;BME280;67425;52.126;20.638;2023-02-15T13:20:40;57699.09;;;-144.78;100.00
55994;BME280;67425;52.126;20.638;2023-02-15T13:23:19;57665.88;;;-144.78;100.00
55994;BME280;67425;52.126;20.638;2023-02-15T13:25:46;57674.19;;;-144.78;100.00
55994;BME280;67425;52.126;20.638;2023-02-15T13:28:18;57670.03;;;-144.78;100.00
55994;BME280;67425;52.126;20.638;2023-02-15T13:30:46;57676.25;;;-144.78;100.00
55994;BME280;67425;52.126;20.638;2023-02-15T13:33:26;57667.94;;;-144.78;100.00
55994;BME280;67425;52.126;20.638;2023-02-15T13:36:00;57676.25;;;-144.78;100.00
55994;BME280;67425;52.126;20.638;2023-02-15T13:41:36;57688.72;;;-144.78;100.00
55994;BME280;67425;52.126;20.638;2023-02-15T13:47:24;57674.19;;;-144.78;100.00
55994;BME280;67425;52.126;20.638;2023-02-15T13:52:24;57690.78;;;-144.78;100.00
55994;BME280;67425;52.126;20.638;2023-02-15T13:57:56;57680.41;;;-144.78;100.00
55994;BME280;67425;52.126;20.638;2023-02-15T14:18:47;57674.19;;;-144.78;100.00
55994;BME280;67425;52.126;20.638;2023-02-15T14:21:27;57684.56;;;-144.78;100.00
55994;BME280;67425;52.126;20.638;2023-02-15T14:32:29;57697.03;;;-144.78;100.00
55994;BME280;67425;52.126;20.638;2023-02-15T14:34:59;57657.56;;;-144.78;100.00
55994;BME280;67425;52.126;20.638;2023-02-15T14:37:49;57667.94;;;-144.78;100.00
55994;BME280;67425;52.126;20.638;2023-02-15T14:40:33;57690.78;;;-144.78;100.00
55994;BME280;67425;52.126;20.638;2023-02-15T14:49:13;57667.94;;;-144.78;100.00
55994;BME280;67425;52.126;20.638;2023-02-15T14:57:32;57674.19;;;-144.78;100.00
55994;BME280;67425;52.126;20.638;2023-02-15T15:07:14;57682.50;;;-144.78;100.00
55994;BME280;67425;52.126;20.638;2023-02-15T15:09:46;57688.72;;;-144.78;100.00
55994;BME280;67425;52.126;20.638;2023-02-15T15:14:48;57709.50;;;-144.78;100.00
55994;BME280;67425;52.126;20.638;2023-02-15T15:33:46;57724.03;;;-144.78;100.00
55994;BME280;67425;52.126;20.638;2023-02-15T15:41:43;57713.63;;;-144.78;100.00
55994;BME280;67425;52.126;20.638;2023-02-15T15:44:49;57701.19;;;-144.78;100.00
55994;BME280;67425;52.126;20.638;2023-02-15T15:47:44;57688.72;;;-144.78;100.00
55994;BME280;67425;52.126;20.638;2023-02-15T15:50:16;57711.56;;;-144.78;100.00